sensor_id;sensor_type;location;lat;lon;timestamp;P1;durP1;ratioP1;P2;durP2;ratioP2
44189;SDS011;29856;52.144;5.430;2022-10-16T00:01:31;4.47;;;2.17;;
44189;SDS011;29856;52.144;5.430;2022-10-16T00:03:57;6.82;;;2.30;;
44189;SDS011;29856;52.144;5.430;2022-10-16T00:06:24;4.15;;;1.60;;
44189;SDS011;29856;52.144;5.430;2022-10-16T00:08:50;6.35;;;2.22;;
44189;SDS011;29856;52.144;5.430;2022-10-16T00:11:17;10.48;;;2.30;;
44189;SDS011;29856;52.144;5.430;2022-10-16T00:13:46;5.38;;;1.73;;
44189;SDS011;29856;52.144;5.430;2022-10-16T00:16:13;3.55;;;2.13;;
44189;SDS011;29856;52.144;5.430;2022-10-16T00:18:39;6.28;;;1.83;;
44189;SDS011;29856;52.144;5.430;2022-10-16T00:21:06;4.85;;;1.98;;
44189;SDS011;29856;52.144;5.430;2022-10-16T00:23:53;8.05;;;2.20;;
44189;SDS011;29856;52.144;5.430;2022-10-16T00:26:23;9.57;;;2.20;;
44189;SDS011;29856;52.144;5.430;2022-10-16T00:28:49;6.97;;;2.40;;
44189;SDS011;29856;52.144;5.430;2022-10-16T00:31:16;5.80;;;2.05;;
44189;SDS011;29856;52.144;5.430;2022-10-16T00:33:42;10.95;;;2.80;;
44189;SDS011;29856;52.144;5.430;2022-10-16T00:36:09;4.80;;;2.13;;
44189;SDS011;29856;52.144;5.430;2022-10-16T00:38:36;8.68;;;2.08;;
44189;SDS011;29856;52.144;5.430;2022-10-16T00:41:01;7.75;;;2.05;;
44189;SDS011;29856;52.144;5.430;2022-10-16T00:46:08;8.27;;;2.20;;
44189;SDS011;29856;52.144;5.430;2022-10-16T00:49:06;5.47;;;2.10;;
44189;SDS011;29856;52.144;5.430;2022-10-16T00:51:34;6.85;;;2.53;;
44189;SDS011;29856;52.144;5.430;2022-10-16T00:54:25;4.57;;;2.30;;
44189;SDS011;29856;52.144;5.430;2022-10-16T00:56:52;11.90;;;2.65;;
44189;SDS011;29856;52.144;5.430;2022-10-16T00:59:20;6.22;;;2.50;;
44189;SDS011;29856;52.144;5.430;2022-10-16T01:01:49;6.43;;;2.35;;
44189;SDS011;29856;52.144;5.430;2022-10-16T01:04:16;4.43;;;3.22;;
44189;SDS011;29856;52.144;5.430;2022-10-16T01:09:14;6.10;;;2.72;;
44189;SDS011;29856;52.144;5.430;2022-10-16T01:11:57;9.20;;;3.72;;
44189;SDS011;29856;52.144;5.430;2022-10-16T01:18:32;10.27;;;3.45;;
44189;SDS011;29856;52.144;5.430;2022-10-16T01:20:58;7.18;;;3.35;;
44189;SDS011;29856;52.144;5.430;2022-10-16T01:29:15;12.93;;;3.60;;
44189;SDS011;29856;52.144;5.430;2022-10-16T01:31:43;7.93;;;3.40;;
44189;SDS011;29856;52.144;5.430;2022-10-16T01:34:16;8.55;;;4.03;;
44189;SDS011;29856;52.144;5.430;2022-10-16T01:36:47;5.55;;;3.30;;
44189;SDS011;29856;52.144;5.430;2022-10-16T01:39:19;10.55;;;3.80;;
44189;SDS011;29856;52.144;5.430;2022-10-16T01:41:52;7.47;;;3.75;;
44189;SDS011;29856;52.144;5.430;2022-10-16T01:44:28;10.00;;;3.53;;
44189;SDS011;29856;52.144;5.430;2022-10-16T01:46:56;9.88;;;4.07;;
44189;SDS011;29856;52.144;5.430;2022-10-16T01:49:23;8.63;;;3.63;;
44189;SDS011;29856;52.144;5.430;2022-10-16T01:51:52;13.60;;;3.30;;
44189;SDS011;29856;52.144;5.430;2022-10-16T01:54:20;9.00;;;3.67;;
44189;SDS011;29856;52.144;5.430;2022-10-16T01:56:50;5.75;;;3.63;;
44189;SDS011;29856;52.144;5.430;2022-10-16T01:59:17;9.77;;;3.90;;
44189;SDS011;29856;52.144;5.430;2022-10-16T02:01:47;10.27;;;3.92;;
44189;SDS011;29856;52.144;5.430;2022-10-16T02:04:17;7.57;;;3.33;;
44189;SDS011;29856;52.144;5.430;2022-10-16T02:06:50;6.57;;;3.45;;
44189;SDS011;29856;52.144;5.430;2022-10-16T02:09:17;7.35;;;3.45;;
44189;SDS011;29856;52.144;5.430;2022-10-16T02:11:43;6.35;;;3.15;;
44189;SDS011;29856;52.144;5.430;2022-10-16T02:14:09;9.35;;;3.55;;
44189;SDS011;29856;52.144;5.430;2022-10-16T02:16:36;6.78;;;2.60;;
44189;SDS011;29856;52.144;5.430;2022-10-16T02:19:03;5.78;;;2.67;;
44189;SDS011;29856;52.144;5.430;2022-10-16T02:21:38;5.53;;;2.80;;
44189;SDS011;29856;52.144;5.430;2022-10-16T02:24:12;5.10;;;2.58;;
44189;SDS011;29856;52.144;5.430;2022-10-16T02:29:26;4.82;;;2.92;;
44189;SDS011;29856;52.144;5.430;2022-10-16T02:31:54;7.55;;;2.83;;
44189;SDS011;29856;52.144;5.430;2022-10-16T02:34:23;6.47;;;2.90;;
44189;SDS011;29856;52.144;5.430;2022-10-16T02:36:50;6.40;;;2.63;;
44189;SDS011;29856;52.144;5.430;2022-10-16T02:39:17;7.32;;;2.40;;
44189;SDS011;29856;52.144;5.430;2022-10-16T02:41:44;5.25;;;2.45;;
44189;SDS011;29856;52.144;5.430;2022-10-16T02:44:10;5.82;;;2.65;;
44189;SDS011;29856;52.144;5.430;2022-10-16T02:46:35;6.22;;;2.90;;
44189;SDS011;29856;52.144;5.430;2022-10-16T02:49:01;8.70;;;2.55;;
44189;SDS011;29856;52.144;5.430;2022-10-16T02:51:26;5.70;;;2.95;;
44189;SDS011;29856;52.144;5.430;2022-10-16T02:53:51;6.15;;;3.42;;
44189;SDS011;29856;52.144;5.430;2022-10-16T02:56:17;4.88;;;2.70;;
44189;SDS011;29856;52.144;5.430;2022-10-16T02:58:42;5.10;;;2.67;;
44189;SDS011;29856;52.144;5.430;2022-10-16T03:01:08;9.68;;;3.25;;
44189;SDS011;29856;52.144;5.430;2022-10-16T03:03:33;5.22;;;2.70;;
44189;SDS011;29856;52.144;5.430;2022-10-16T03:05:59;6.38;;;3.22;;
44189;SDS011;29856;52.144;5.430;2022-10-16T03:08:24;5.82;;;2.80;;
44189;SDS011;29856;52.144;5.430;2022-10-16T03:10:50;3.45;;;2.58;;
44189;SDS011;29856;52.144;5.430;2022-10-16T03:13:16;5.68;;;2.85;;
44189;SDS011;29856;52.144;5.430;2022-10-16T03:15:41;4.53;;;2.63;;
44189;SDS011;29856;52.144;5.430;2022-10-16T03:18:07;7.20;;;2.90;;
44189;SDS011;29856;52.144;5.430;2022-10-16T03:20:32;3.92;;;3.10;;
44189;SDS011;29856;52.144;5.430;2022-10-16T03:22:58;4.30;;;2.47;;
44189;SDS011;29856;52.144;5.430;2022-10-16T03:25:23;4.43;;;2.47;;
44189;SDS011;29856;52.144;5.430;2022-10-16T03:27:49;4.43;;;2.60;;
44189;SDS011;29856;52.144;5.430;2022-10-16T03:30:14;4.05;;;2.70;;
44189;SDS011;29856;52.144;5.430;2022-10-16T03:32:40;7.72;;;2.92;;
44189;SDS011;29856;52.144;5.430;2022-10-16T03:35:05;4.57;;;2.65;;
44189;SDS011;29856;52.144;5.430;2022-10-16T03:37:31;4.55;;;2.40;;
44189;SDS011;29856;52.144;5.430;2022-10-16T03:39:56;4.57;;;2.55;;
44189;SDS011;29856;52.144;5.430;2022-10-16T03:42:22;5.70;;;2.60;;
44189;SDS011;29856;52.144;5.430;2022-10-16T03:44:47;6.13;;;3.10;;
44189;SDS011;29856;52.144;5.430;2022-10-16T03:47:13;5.88;;;2.88;;
44189;SDS011;29856;52.144;5.430;2022-10-16T03:49:38;8.02;;;3.42;;
44189;SDS011;29856;52.144;5.430;2022-10-16T03:52:04;5.55;;;2.70;;
44189;SDS011;29856;52.144;5.430;2022-10-16T03:54:29;10.20;;;3.10;;
44189;SDS011;29856;52.144;5.430;2022-10-16T03:56:54;6.70;;;3.38;;
44189;SDS011;29856;52.144;5.430;2022-10-16T03:59:20;5.30;;;3.10;;
44189;SDS011;29856;52.144;5.430;2022-10-16T04:01:45;7.10;;;2.78;;
44189;SDS011;29856;52.144;5.430;2022-10-16T04:04:11;7.35;;;3.10;;
44189;SDS011;29856;52.144;5.430;2022-10-16T04:06:36;5.47;;;2.67;;
44189;SDS011;29856;52.144;5.430;2022-10-16T04:09:02;7.75;;;2.95;;
44189;SDS011;29856;52.144;5.430;2022-10-16T04:11:27;6.93;;;3.17;;
44189;SDS011;29856;52.144;5.430;2022-10-16T04:13:53;5.70;;;2.63;;
44189;SDS011;29856;52.144;5.430;2022-10-16T04:16:18;3.30;;;2.28;;
44189;SDS011;29856;52.144;5.430;2022-10-16T04:18:44;7.35;;;2.50;;
44189;SDS011;29856;52.144;5.430;2022-10-16T04:21:09;5.90;;;2.80;;
44189;SDS011;29856;52.144;5.430;2022-10-16T04:23:34;3.97;;;2.17;;
44189;SDS011;29856;52.144;5.430;2022-10-16T04:26:00;3.22;;;2.38;;
44189;SDS011;29856;52.144;5.430;2022-10-16T04:28:25;10.07;;;2.35;;
44189;SDS011;29856;52.144;5.430;2022-10-16T04:30:51;4.93;;;2.33;;
44189;SDS011;29856;52.144;5.430;2022-10-16T04:33:16;4.65;;;1.90;;
44189;SDS011;29856;52.144;5.430;2022-10-16T04:35:42;2.50;;;2.00;;
44189;SDS011;29856;52.144;5.430;2022-10-16T04:38:07;5.05;;;2.17;;
44189;SDS011;29856;52.144;5.430;2022-10-16T04:40:33;4.13;;;2.08;;
44189;SDS011;29856;52.144;5.430;2022-10-16T04:42:59;2.95;;;2.03;;
44189;SDS011;29856;52.144;5.430;2022-10-16T04:45:24;3.05;;;2.10;;
44189;SDS011;29856;52.144;5.430;2022-10-16T04:47:50;5.55;;;2.10;;
44189;SDS011;29856;52.144;5.430;2022-10-16T04:50:15;2.83;;;1.85;;
44189;SDS011;29856;52.144;5.430;2022-10-16T04:52:41;3.38;;;2.05;;
44189;SDS011;29856;52.144;5.430;2022-10-16T04:55:06;3.80;;;2.30;;
44189;SDS011;29856;52.144;5.430;2022-10-16T04:57:32;4.13;;;2.03;;
44189;SDS011;29856;52.144;5.430;2022-10-16T04:59:58;4.03;;;1.95;;
44189;SDS011;29856;52.144;5.430;2022-10-16T05:02:23;3.97;;;2.75;;
44189;SDS011;29856;52.144;5.430;2022-10-16T05:04:49;2.03;;;1.80;;
44189;SDS011;29856;52.144;5.430;2022-10-16T05:07:15;6.03;;;2.17;;
44189;SDS011;29856;52.144;5.430;2022-10-16T05:09:40;2.85;;;1.75;;
44189;SDS011;29856;52.144;5.430;2022-10-16T05:12:06;4.60;;;1.90;;
44189;SDS011;29856;52.144;5.430;2022-10-16T05:14:31;5.53;;;2.22;;
44189;SDS011;29856;52.144;5.430;2022-10-16T05:16:57;4.57;;;2.17;;
44189;SDS011;29856;52.144;5.430;2022-10-16T05:19:22;3.13;;;1.75;;
44189;SDS011;29856;52.144;5.430;2022-10-16T05:21:47;3.53;;;1.98;;
44189;SDS011;29856;52.144;5.430;2022-10-16T05:24:13;4.30;;;1.92;;
44189;SDS011;29856;52.144;5.430;2022-10-16T05:26:38;4.43;;;1.90;;
44189;SDS011;29856;52.144;5.430;2022-10-16T05:29:04;4.20;;;1.83;;
44189;SDS011;29856;52.144;5.430;2022-10-16T05:31:29;5.88;;;2.92;;
44189;SDS011;29856;52.144;5.430;2022-10-16T05:33:58;4.05;;;1.70;;
44189;SDS011;29856;52.144;5.430;2022-10-16T05:36:24;3.65;;;2.55;;
44189;SDS011;29856;52.144;5.430;2022-10-16T05:38:50;3.15;;;1.98;;
44189;SDS011;29856;52.144;5.430;2022-10-16T05:41:16;5.32;;;1.83;;
44189;SDS011;29856;52.144;5.430;2022-10-16T05:43:41;9.27;;;2.03;;
44189;SDS011;29856;52.144;5.430;2022-10-16T05:46:07;2.50;;;1.50;;
44189;SDS011;29856;52.144;5.430;2022-10-16T05:48:32;2.65;;;1.90;;
44189;SDS011;29856;52.144;5.430;2022-10-16T05:50:58;3.70;;;1.83;;
44189;SDS011;29856;52.144;5.430;2022-10-16T05:53:24;3.28;;;2.00;;
44189;SDS011;29856;52.144;5.430;2022-10-16T05:55:51;4.07;;;1.88;;
44189;SDS011;29856;52.144;5.430;2022-10-16T05:58:17;5.95;;;1.80;;
44189;SDS011;29856;52.144;5.430;2022-10-16T06:00:43;6.72;;;2.70;;
44189;SDS011;29856;52.144;5.430;2022-10-16T06:03:08;6.18;;;2.10;;
44189;SDS011;29856;52.144;5.430;2022-10-16T06:05:34;3.72;;;2.13;;
44189;SDS011;29856;52.144;5.430;2022-10-16T06:07:59;4.38;;;1.95;;
44189;SDS011;29856;52.144;5.430;2022-10-16T06:10:25;2.72;;;2.10;;
44189;SDS011;29856;52.144;5.430;2022-10-16T06:12:50;5.10;;;2.13;;
44189;SDS011;29856;52.144;5.430;2022-10-16T06:15:15;5.70;;;2.88;;
44189;SDS011;29856;52.144;5.430;2022-10-16T06:17:41;4.57;;;2.65;;
44189;SDS011;29856;52.144;5.430;2022-10-16T06:20:06;5.85;;;2.13;;
44189;SDS011;29856;52.144;5.430;2022-10-16T06:22:32;3.60;;;2.03;;
44189;SDS011;29856;52.144;5.430;2022-10-16T06:24:58;5.80;;;2.30;;
44189;SDS011;29856;52.144;5.430;2022-10-16T06:27:23;5.60;;;2.00;;
44189;SDS011;29856;52.144;5.430;2022-10-16T06:29:48;3.63;;;2.35;;
44189;SDS011;29856;52.144;5.430;2022-10-16T06:32:14;4.45;;;2.08;;
44189;SDS011;29856;52.144;5.430;2022-10-16T06:34:39;4.93;;;2.20;;
44189;SDS011;29856;52.144;5.430;2022-10-16T06:37:05;5.00;;;2.25;;
44189;SDS011;29856;52.144;5.430;2022-10-16T06:39:30;2.05;;;1.80;;
44189;SDS011;29856;52.144;5.430;2022-10-16T06:41:56;6.78;;;1.88;;
44189;SDS011;29856;52.144;5.430;2022-10-16T06:44:21;6.20;;;2.25;;
44189;SDS011;29856;52.144;5.430;2022-10-16T06:46:46;5.78;;;2.55;;
44189;SDS011;29856;52.144;5.430;2022-10-16T06:49:12;9.35;;;2.50;;
44189;SDS011;29856;52.144;5.430;2022-10-16T06:51:37;10.55;;;3.67;;
44189;SDS011;29856;52.144;5.430;2022-10-16T06:54:03;7.20;;;2.20;;
44189;SDS011;29856;52.144;5.430;2022-10-16T06:56:28;3.72;;;2.25;;
44189;SDS011;29856;52.144;5.430;2022-10-16T06:58:54;6.18;;;2.28;;
44189;SDS011;29856;52.144;5.430;2022-10-16T07:01:20;6.60;;;2.42;;
44189;SDS011;29856;52.144;5.430;2022-10-16T07:03:47;4.28;;;2.13;;
44189;SDS011;29856;52.144;5.430;2022-10-16T07:06:15;5.85;;;2.35;;
44189;SDS011;29856;52.144;5.430;2022-10-16T07:08:44;4.90;;;2.35;;
44189;SDS011;29856;52.144;5.430;2022-10-16T07:11:14;2.85;;;2.05;;
44189;SDS011;29856;52.144;5.430;2022-10-16T07:13:42;3.47;;;2.15;;
44189;SDS011;29856;52.144;5.430;2022-10-16T07:16:09;4.35;;;2.00;;
44189;SDS011;29856;52.144;5.430;2022-10-16T07:18:36;5.30;;;2.33;;
44189;SDS011;29856;52.144;5.430;2022-10-16T07:23:35;2.75;;;1.83;;
44189;SDS011;29856;52.144;5.430;2022-10-16T07:26:01;6.07;;;2.00;;
44189;SDS011;29856;52.144;5.430;2022-10-16T07:28:26;8.55;;;2.17;;
44189;SDS011;29856;52.144;5.430;2022-10-16T07:30:53;6.97;;;2.28;;
44189;SDS011;29856;52.144;5.430;2022-10-16T07:33:18;7.93;;;2.15;;
44189;SDS011;29856;52.144;5.430;2022-10-16T07:35:50;4.35;;;1.75;;
44189;SDS011;29856;52.144;5.430;2022-10-16T07:38:17;5.28;;;2.00;;
44189;SDS011;29856;52.144;5.430;2022-10-16T07:40:43;7.10;;;2.22;;
44189;SDS011;29856;52.144;5.430;2022-10-16T07:43:08;4.82;;;1.70;;
44189;SDS011;29856;52.144;5.430;2022-10-16T07:45:34;5.05;;;1.90;;
44189;SDS011;29856;52.144;5.430;2022-10-16T07:47:59;4.47;;;1.48;;
44189;SDS011;29856;52.144;5.430;2022-10-16T07:50:25;5.07;;;1.52;;
44189;SDS011;29856;52.144;5.430;2022-10-16T07:52:50;7.53;;;1.63;;
44189;SDS011;29856;52.144;5.430;2022-10-16T07:55:16;4.95;;;1.55;;
44189;SDS011;29856;52.144;5.430;2022-10-16T07:57:41;9.65;;;2.20;;
44189;SDS011;29856;52.144;5.430;2022-10-16T08:00:07;5.43;;;1.88;;
44189;SDS011;29856;52.144;5.430;2022-10-16T08:02:33;6.50;;;2.05;;
44189;SDS011;29856;52.144;5.430;2022-10-16T08:04:58;8.10;;;2.45;;
44189;SDS011;29856;52.144;5.430;2022-10-16T08:07:24;4.70;;;2.17;;
44189;SDS011;29856;52.144;5.430;2022-10-16T08:09:49;7.82;;;2.35;;
44189;SDS011;29856;52.144;5.430;2022-10-16T08:12:15;5.45;;;1.88;;
44189;SDS011;29856;52.144;5.430;2022-10-16T08:14:40;3.03;;;2.40;;
44189;SDS011;29856;52.144;5.430;2022-10-16T08:17:06;5.00;;;2.20;;
44189;SDS011;29856;52.144;5.430;2022-10-16T08:19:31;6.65;;;2.33;;
44189;SDS011;29856;52.144;5.430;2022-10-16T08:21:57;5.57;;;2.13;;
44189;SDS011;29856;52.144;5.430;2022-10-16T08:24:22;6.20;;;2.03;;
44189;SDS011;29856;52.144;5.430;2022-10-16T08:26:47;5.45;;;1.95;;
44189;SDS011;29856;52.144;5.430;2022-10-16T08:29:13;6.03;;;2.28;;
44189;SDS011;29856;52.144;5.430;2022-10-16T08:31:39;5.70;;;2.65;;
44189;SDS011;29856;52.144;5.430;2022-10-16T08:34:04;6.40;;;2.00;;
44189;SDS011;29856;52.144;5.430;2022-10-16T08:36:30;9.85;;;2.28;;
44189;SDS011;29856;52.144;5.430;2022-10-16T08:38:55;4.85;;;2.10;;
44189;SDS011;29856;52.144;5.430;2022-10-16T08:44:25;4.25;;;1.60;;
44189;SDS011;29856;52.144;5.430;2022-10-16T08:47:17;5.13;;;2.00;;
44189;SDS011;29856;52.144;5.430;2022-10-16T08:49:55;8.88;;;1.98;;
44189;SDS011;29856;52.144;5.430;2022-10-16T08:52:29;7.55;;;2.17;;
44189;SDS011;29856;52.144;5.430;2022-10-16T08:54:57;8.57;;;2.30;;
44189;SDS011;29856;52.144;5.430;2022-10-16T08:57:24;9.55;;;2.75;;
44189;SDS011;29856;52.144;5.430;2022-10-16T08:59:51;11.50;;;2.72;;
44189;SDS011;29856;52.144;5.430;2022-10-16T09:02:33;6.00;;;2.30;;
44189;SDS011;29856;52.144;5.430;2022-10-16T09:10:37;6.57;;;1.63;;
44189;SDS011;29856;52.144;5.430;2022-10-16T09:13:22;7.38;;;1.70;;
44189;SDS011;29856;52.144;5.430;2022-10-16T09:15:58;6.47;;;2.30;;
44189;SDS011;29856;52.144;5.430;2022-10-16T09:18:42;10.23;;;2.55;;
44189;SDS011;29856;52.144;5.430;2022-10-16T09:21:21;7.88;;;1.80;;
44189;SDS011;29856;52.144;5.430;2022-10-16T09:23:50;8.45;;;1.98;;
44189;SDS011;29856;52.144;5.430;2022-10-16T09:26:16;12.27;;;2.20;;
44189;SDS011;29856;52.144;5.430;2022-10-16T09:28:42;7.95;;;2.33;;
44189;SDS011;29856;52.144;5.430;2022-10-16T09:31:26;9.15;;;2.15;;
44189;SDS011;29856;52.144;5.430;2022-10-16T09:33:57;9.68;;;2.88;;
44189;SDS011;29856;52.144;5.430;2022-10-16T09:36:25;9.30;;;2.22;;
44189;SDS011;29856;52.144;5.430;2022-10-16T09:39:03;5.95;;;1.70;;
44189;SDS011;29856;52.144;5.430;2022-10-16T09:41:30;11.18;;;2.42;;
44189;SDS011;29856;52.144;5.430;2022-10-16T09:44:25;9.20;;;2.05;;
44189;SDS011;29856;52.144;5.430;2022-10-16T09:47:03;11.82;;;2.13;;
44189;SDS011;29856;52.144;5.430;2022-10-16T09:49:36;7.60;;;1.98;;
44189;SDS011;29856;52.144;5.430;2022-10-16T09:52:05;13.70;;;2.63;;
44189;SDS011;29856;52.144;5.430;2022-10-16T09:54:36;16.80;;;2.90;;
44189;SDS011;29856;52.144;5.430;2022-10-16T09:57:05;15.35;;;2.30;;
44189;SDS011;29856;52.144;5.430;2022-10-16T09:59:32;9.13;;;1.88;;
44189;SDS011;29856;52.144;5.430;2022-10-16T10:02:00;8.25;;;1.70;;
44189;SDS011;29856;52.144;5.430;2022-10-16T10:04:36;10.95;;;2.80;;
44189;SDS011;29856;52.144;5.430;2022-10-16T10:07:04;14.27;;;2.65;;
44189;SDS011;29856;52.144;5.430;2022-10-16T10:09:35;9.23;;;2.38;;
44189;SDS011;29856;52.144;5.430;2022-10-16T10:12:04;12.35;;;2.63;;
44189;SDS011;29856;52.144;5.430;2022-10-16T10:14:38;9.57;;;2.17;;
44189;SDS011;29856;52.144;5.430;2022-10-16T10:17:14;11.05;;;2.35;;
44189;SDS011;29856;52.144;5.430;2022-10-16T10:22:23;15.15;;;2.75;;
44189;SDS011;29856;52.144;5.430;2022-10-16T10:24:54;11.15;;;1.88;;
44189;SDS011;29856;52.144;5.430;2022-10-16T10:27:21;18.52;;;3.25;;
44189;SDS011;29856;52.144;5.430;2022-10-16T10:30:00;8.27;;;2.20;;
44189;SDS011;29856;52.144;5.430;2022-10-16T10:36:08;16.30;;;3.30;;
44189;SDS011;29856;52.144;5.430;2022-10-16T10:41:18;11.10;;;2.10;;
44189;SDS011;29856;52.144;5.430;2022-10-16T10:54:45;12.85;;;2.20;;
44189;SDS011;29856;52.144;5.430;2022-10-16T10:57:35;15.30;;;2.63;;
44189;SDS011;29856;52.144;5.430;2022-10-16T11:00:12;10.25;;;2.00;;
44189;SDS011;29856;52.144;5.430;2022-10-16T11:02:50;12.68;;;2.88;;
44189;SDS011;29856;52.144;5.430;2022-10-16T11:08:28;10.40;;;2.15;;
44189;SDS011;29856;52.144;5.430;2022-10-16T11:11:09;9.65;;;2.65;;
44189;SDS011;29856;52.144;5.430;2022-10-16T11:13:42;11.75;;;2.20;;
44189;SDS011;29856;52.144;5.430;2022-10-16T11:16:18;15.25;;;2.35;;
44189;SDS011;29856;52.144;5.430;2022-10-16T11:19:11;13.52;;;2.88;;
44189;SDS011;29856;52.144;5.430;2022-10-16T11:21:55;14.80;;;2.63;;
44189;SDS011;29856;52.144;5.430;2022-10-16T11:24:35;16.33;;;2.63;;
44189;SDS011;29856;52.144;5.430;2022-10-16T11:27:07;12.75;;;2.40;;
44189;SDS011;29856;52.144;5.430;2022-10-16T11:29:39;12.98;;;2.92;;
44189;SDS011;29856;52.144;5.430;2022-10-16T11:32:20;14.48;;;2.72;;
44189;SDS011;29856;52.144;5.430;2022-10-16T11:34:52;11.65;;;2.60;;
44189;SDS011;29856;52.144;5.430;2022-10-16T11:37:32;10.98;;;2.00;;
44189;SDS011;29856;52.144;5.430;2022-10-16T11:42:54;11.07;;;2.08;;
44189;SDS011;29856;52.144;5.430;2022-10-16T11:45:34;12.43;;;2.23;;
44189;SDS011;29856;52.144;5.430;2022-10-16T11:54:02;8.88;;;1.90;;
44189;SDS011;29856;52.144;5.430;2022-10-16T11:56:47;11.18;;;1.75;;
44189;SDS011;29856;52.144;5.430;2022-10-16T11:59:30;10.82;;;2.15;;
44189;SDS011;29856;52.144;5.430;2022-10-16T12:04:53;10.38;;;1.70;;
44189;SDS011;29856;52.144;5.430;2022-10-16T12:10:38;9.48;;;2.17;;
44189;SDS011;29856;52.144;5.430;2022-10-16T12:12:56;5.72;;;1.65;;
44189;SDS011;29856;52.144;5.430;2022-10-16T12:15:26;10.90;;;2.20;;
44189;SDS011;29856;52.144;5.430;2022-10-16T12:17:53;8.25;;;1.95;;
44189;SDS011;29856;52.144;5.430;2022-10-16T12:20:21;10.70;;;2.60;;
44189;SDS011;29856;52.144;5.430;2022-10-16T12:22:51;9.10;;;2.22;;
44189;SDS011;29856;52.144;5.430;2022-10-16T12:25:20;13.40;;;2.30;;
44189;SDS011;29856;52.144;5.430;2022-10-16T12:27:55;10.35;;;2.38;;
44189;SDS011;29856;52.144;5.430;2022-10-16T12:30:32;8.55;;;1.83;;
44189;SDS011;29856;52.144;5.430;2022-10-16T12:33:06;12.02;;;2.13;;
44189;SDS011;29856;52.144;5.430;2022-10-16T12:35:44;11.73;;;2.77;;
44189;SDS011;29856;52.144;5.430;2022-10-16T12:38:26;13.10;;;2.45;;
44189;SDS011;29856;52.144;5.430;2022-10-16T12:40:59;8.02;;;2.55;;
44189;SDS011;29856;52.144;5.430;2022-10-16T12:43:35;14.23;;;2.78;;
44189;SDS011;29856;52.144;5.430;2022-10-16T12:48:34;12.63;;;2.60;;
44189;SDS011;29856;52.144;5.430;2022-10-16T12:53:45;10.27;;;2.28;;
44189;SDS011;29856;52.144;5.430;2022-10-16T12:56:21;8.55;;;2.47;;
44189;SDS011;29856;52.144;5.430;2022-10-16T13:01:40;10.23;;;2.05;;
44189;SDS011;29856;52.144;5.430;2022-10-16T13:10:22;12.10;;;2.10;;
44189;SDS011;29856;52.144;5.430;2022-10-16T13:15:55;8.88;;;1.85;;
44189;SDS011;29856;52.144;5.430;2022-10-16T13:18:58;7.90;;;2.00;;
44189;SDS011;29856;52.144;5.430;2022-10-16T13:21:41;9.02;;;1.88;;
44189;SDS011;29856;52.144;5.430;2022-10-16T13:26:59;10.20;;;1.90;;
44189;SDS011;29856;52.144;5.430;2022-10-16T13:29:35;10.25;;;2.28;;
44189;SDS011;29856;52.144;5.430;2022-10-16T13:32:01;13.38;;;2.15;;
44189;SDS011;29856;52.144;5.430;2022-10-16T13:34:41;16.35;;;3.05;;
44189;SDS011;29856;52.144;5.430;2022-10-16T13:37:19;12.00;;;2.13;;
44189;SDS011;29856;52.144;5.430;2022-10-16T13:39:47;9.85;;;2.17;;
44189;SDS011;29856;52.144;5.430;2022-10-16T13:42:28;10.02;;;2.42;;
44189;SDS011;29856;52.144;5.430;2022-10-16T13:44:54;8.77;;;2.15;;
44189;SDS011;29856;52.144;5.430;2022-10-16T13:47:21;12.60;;;2.30;;
44189;SDS011;29856;52.144;5.430;2022-10-16T13:49:59;11.45;;;2.65;;
44189;SDS011;29856;52.144;5.430;2022-10-16T13:52:29;15.82;;;2.97;;
44189;SDS011;29856;52.144;5.430;2022-10-16T13:54:54;7.43;;;2.10;;
44189;SDS011;29856;52.144;5.430;2022-10-16T13:57:21;11.77;;;2.60;;
44189;SDS011;29856;52.144;5.430;2022-10-16T13:59:48;8.50;;;1.98;;
44189;SDS011;29856;52.144;5.430;2022-10-16T14:02:16;12.20;;;2.65;;
44189;SDS011;29856;52.144;5.430;2022-10-16T14:04:55;13.27;;;2.40;;
44189;SDS011;29856;52.144;5.430;2022-10-16T14:07:27;10.45;;;2.33;;
44189;SDS011;29856;52.144;5.430;2022-10-16T14:09:59;9.88;;;2.30;;
44189;SDS011;29856;52.144;5.430;2022-10-16T14:12:30;12.90;;;2.90;;
44189;SDS011;29856;52.144;5.430;2022-10-16T14:14:56;10.23;;;2.40;;
44189;SDS011;29856;52.144;5.430;2022-10-16T14:17:31;10.65;;;2.00;;
44189;SDS011;29856;52.144;5.430;2022-10-16T14:22:30;10.45;;;2.35;;
44189;SDS011;29856;52.144;5.430;2022-10-16T14:25:00;10.20;;;2.80;;
44189;SDS011;29856;52.144;5.430;2022-10-16T14:27:44;10.20;;;2.30;;
44189;SDS011;29856;52.144;5.430;2022-10-16T14:30:18;11.07;;;2.25;;
44189;SDS011;29856;52.144;5.430;2022-10-16T14:32:53;13.27;;;3.03;;
44189;SDS011;29856;52.144;5.430;2022-10-16T14:35:33;10.82;;;2.10;;
44189;SDS011;29856;52.144;5.430;2022-10-16T14:38:02;20.58;;;2.38;;
44189;SDS011;29856;52.144;5.430;2022-10-16T14:40:30;14.57;;;2.30;;
44189;SDS011;29856;52.144;5.430;2022-10-16T14:42:57;12.52;;;2.72;;
44189;SDS011;29856;52.144;5.430;2022-10-16T14:45:28;10.63;;;2.67;;
44189;SDS011;29856;52.144;5.430;2022-10-16T14:47:56;12.23;;;2.30;;
44189;SDS011;29856;52.144;5.430;2022-10-16T14:50:23;12.15;;;2.47;;
44189;SDS011;29856;52.144;5.430;2022-10-16T14:52:49;13.93;;;2.50;;
44189;SDS011;29856;52.144;5.430;2022-10-16T14:55:15;10.63;;;2.08;;
44189;SDS011;29856;52.144;5.430;2022-10-16T14:57:40;8.98;;;1.90;;
44189;SDS011;29856;52.144;5.430;2022-10-16T15:02:44;8.85;;;2.03;;
44189;SDS011;29856;52.144;5.430;2022-10-16T15:07:45;10.60;;;2.75;;
44189;SDS011;29856;52.144;5.430;2022-10-16T15:10:12;10.73;;;2.05;;
44189;SDS011;29856;52.144;5.430;2022-10-16T15:12:39;15.95;;;3.13;;
44189;SDS011;29856;52.144;5.430;2022-10-16T15:15:26;10.98;;;2.20;;
44189;SDS011;29856;52.144;5.430;2022-10-16T15:17:55;9.00;;;2.50;;
44189;SDS011;29856;52.144;5.430;2022-10-16T15:20:22;12.77;;;2.63;;
44189;SDS011;29856;52.144;5.430;2022-10-16T15:22:49;9.90;;;2.28;;
44189;SDS011;29856;52.144;5.430;2022-10-16T15:27:56;10.40;;;2.40;;
44189;SDS011;29856;52.144;5.430;2022-10-16T15:30:22;14.63;;;4.00;;
44189;SDS011;29856;52.144;5.430;2022-10-16T15:32:48;16.88;;;5.90;;
44189;SDS011;29856;52.144;5.430;2022-10-16T15:35:13;16.33;;;4.53;;
44189;SDS011;29856;52.144;5.430;2022-10-16T15:37:38;13.02;;;4.28;;
44189;SDS011;29856;52.144;5.430;2022-10-16T15:40:04;12.55;;;3.35;;
44189;SDS011;29856;52.144;5.430;2022-10-16T15:42:30;11.57;;;4.78;;
44189;SDS011;29856;52.144;5.430;2022-10-16T15:44:55;17.17;;;5.47;;
44189;SDS011;29856;52.144;5.430;2022-10-16T15:47:21;22.08;;;6.25;;
44189;SDS011;29856;52.144;5.430;2022-10-16T15:49:46;18.40;;;4.85;;
44189;SDS011;29856;52.144;5.430;2022-10-16T15:52:12;15.75;;;3.70;;
44189;SDS011;29856;52.144;5.430;2022-10-16T15:54:37;13.68;;;3.60;;
44189;SDS011;29856;52.144;5.430;2022-10-16T15:57:03;15.55;;;4.07;;
44189;SDS011;29856;52.144;5.430;2022-10-16T15:59:28;11.18;;;3.10;;
44189;SDS011;29856;52.144;5.430;2022-10-16T16:01:54;14.52;;;3.85;;
44189;SDS011;29856;52.144;5.430;2022-10-16T16:04:19;14.38;;;3.03;;
44189;SDS011;29856;52.144;5.430;2022-10-16T16:06:45;10.98;;;2.58;;
44189;SDS011;29856;52.144;5.430;2022-10-16T16:09:10;13.52;;;3.03;;
44189;SDS011;29856;52.144;5.430;2022-10-16T16:11:37;17.58;;;3.28;;
44189;SDS011;29856;52.144;5.430;2022-10-16T16:14:02;12.95;;;2.53;;
44189;SDS011;29856;52.144;5.430;2022-10-16T16:16:28;11.05;;;2.90;;
44189;SDS011;29856;52.144;5.430;2022-10-16T16:18:53;13.35;;;3.13;;
44189;SDS011;29856;52.144;5.430;2022-10-16T16:21:19;16.60;;;3.90;;
44189;SDS011;29856;52.144;5.430;2022-10-16T16:23:44;17.00;;;3.60;;
44189;SDS011;29856;52.144;5.430;2022-10-16T16:26:43;11.55;;;3.00;;
44189;SDS011;29856;52.144;5.430;2022-10-16T16:29:02;19.95;;;3.72;;
44189;SDS011;29856;52.144;5.430;2022-10-16T16:31:29;13.70;;;4.03;;